Time;durP1;ratioP1;P1;durP2;ratioP2;P2;SDS_P1;SDS_P2;PMS_P1;PMS_P2;Temp;Humidity;BMP_temperature;BMP_pressure;BME280_temperature;BME280_humidity;BME280_pressure;Samples;Min_cycle;Max_cycle;Signal;HPM_P1;HPM_P2
2022/03/17 00:00:56;;;;;;;31.33;18.15;;;9.50;99.90;;;;;;6154246;23;20056;-79
2022/03/17 00:03:23;;;;;;;31.15;18.23;;;9.50;99.90;;;;;;6154163;23;20021;-79
2022/03/17 00:05:49;;;;;;;30.02;18.25;;;9.50;99.90;;;;;;6154013;23;20052;-79
2022/03/17 00:08:16;;;;;;;31.90;18.15;;;9.50;99.90;;;;;;6129968;23;20028;-79
2022/03/17 00:10:42;;;;;;;31.08;18.38;;;9.40;99.90;;;;;;6178898;23;20095;-79
2022/03/17 00:13:08;;;;;;;30.67;18.08;;;9.40;99.90;;;;;;6130020;23;20017;-78
2022/03/17 00:15:34;;;;;;;31.05;18.23;;;9.40;99.90;;;;;;6154758;23;20028;-79
2022/03/17 00:18:00;;;;;;;31.08;17.58;;;9.40;99.90;;;;;;6105137;23;20028;-78
2022/03/17 00:20:26;;;;;;;27.60;17.80;;;9.40;99.90;;;;;;6154169;23;20013;-79
2022/03/17 00:22:51;;;;;;;30.30;18.85;;;9.30;99.90;;;;;;6179109;23;20444;-79
2022/03/17 00:25:17;;;;;;;30.73;19.25;;;9.30;99.90;;;;;;6154220;23;20409;-78
2022/03/17 00:27:44;;;;;;;28.80;17.83;;;9.30;99.90;;;;;;6129891;23;20071;-79
2022/03/17 00:30:10;;;;;;;29.15;17.80;;;9.30;99.90;;;;;;6154010;23;20013;-79
2022/03/17 00:32:38;;;;;;;28.92;18.55;;;9.30;99.90;;;;;;6129648;23;20017;-79
2022/03/17 00:37:50;;;;;;;30.98;19.10;;;9.30;99.90;;;;;;6156328;23;20017;-78
2022/03/17 00:40:16;;;;;;;30.83;17.85;;;9.30;99.90;;;;;;6181257;23;20016;-78
2022/03/17 00:42:42;;;;;;;31.13;17.80;;;9.30;99.90;;;;;;6132384;23;20013;-79
2022/03/17 00:45:09;;;;;;;28.00;17.73;;;9.30;99.90;;;;;;6156499;23;20012;-78
2022/03/17 00:47:36;;;;;;;28.55;17.75;;;9.30;99.90;;;;;;6132547;23;20302;-79
2022/03/17 00:50:02;;;;;;;28.63;17.20;;;9.30;99.90;;;;;;6156893;23;20055;-79
2022/03/17 00:52:28;;;;;;;26.25;16.15;;;9.40;99.90;;;;;;6156836;23;20076;-78
2022/03/17 00:54:54;;;;;;;29.60;17.63;;;9.40;99.90;;;;;;6156685;23;20013;-79
2022/03/17 00:57:19;;;;;;;27.27;17.77;;;9.30;99.90;;;;;;6156441;23;20017;-79
2022/03/17 00:59:45;;;;;;;34.05;19.42;;;9.40;99.90;;;;;;6132181;23;20024;-78
2022/03/17 01:02:11;;;;;;;30.83;17.60;;;9.40;99.90;;;;;;6131772;23;20016;-79
2022/03/17 01:04:36;;;;;;;32.70;18.88;;;9.40;99.90;;;;;;6181758;23;20099;-79
2022/03/17 01:07:03;;;;;;;29.92;18.17;;;9.40;99.90;;;;;;6132919;23;20021;-78
2022/03/17 01:09:29;;;;;;;28.95;15.93;;;9.30;99.90;;;;;;6156360;23;20024;-79
2022/03/17 01:11:55;;;;;;;32.70;18.80;;;9.40;99.90;;;;;;6155867;23;20024;-79
2022/03/17 01:14:21;;;;;;;29.40;17.58;;;9.40;99.90;;;;;;6154381;23;20024;-79
2022/03/17 01:16:47;;;;;;;30.70;18.58;;;9.40;99.90;;;;;;6129472;23;20013;-79
2022/03/17 01:19:13;;;;;;;32.15;18.83;;;9.40;99.90;;;;;;6155759;23;20164;-79
2022/03/17 01:21:38;;;;;;;31.17;17.55;;;9.40;99.90;;;;;;6155549;23;20326;-79
2022/03/17 01:24:05;;;;;;;30.20;18.63;;;9.30;99.90;;;;;;6153824;23;20479;-78
2022/03/17 01:26:30;;;;;;;29.95;18.10;;;9.30;99.90;;;;;;6153351;23;20017;-78
2022/03/17 01:28:56;;;;;;;31.77;19.02;;;9.30;99.90;;;;;;6155392;23;20569;-79
2022/03/17 01:31:23;;;;;;;33.72;18.85;;;9.30;99.90;;;;;;6155520;23;20091;-79
2022/03/17 01:33:50;;;;;;;31.17;18.67;;;9.40;99.90;;;;;;6155652;23;20017;-79
2022/03/17 01:36:15;;;;;;;29.13;17.48;;;9.30;99.90;;;;;;6155171;23;20013;-78
2022/03/17 01:38:41;;;;;;;29.92;18.77;;;9.40;99.90;;;;;;6180279;23;20140;-78
2022/03/17 01:41:07;;;;;;;30.00;18.25;;;9.40;99.90;;;;;;6130232;23;20021;-79
2022/03/17 01:43:32;;;;;;;30.67;18.10;;;9.40;99.90;;;;;;6180455;23;20021;-79
2022/03/17 01:45:58;;;;;;;29.60;17.80;;;9.40;99.90;;;;;;6155629;23;20024;-78
2022/03/17 01:48:24;;;;;;;32.20;18.75;;;9.50;99.90;;;;;;6155971;23;20471;-79
2022/03/17 01:50:50;;;;;;;33.15;17.60;;;9.50;99.90;;;;;;6130764;23;20222;-78
2022/03/17 01:53:16;;;;;;;33.15;17.88;;;9.50;99.90;;;;;;6155307;23;20013;-79
2022/03/17 01:55:42;;;;;;;30.65;18.25;;;9.50;99.90;;;;;;6155341;23;20009;-79
2022/03/17 01:58:08;;;;;;;30.13;18.33;;;9.50;99.90;;;;;;6155509;23;20106;-78
2022/03/17 02:00:34;;;;;;;27.17;16.50;;;10.20;99.90;;;;;;6130479;23;20017;-78
2022/03/17 02:03:00;;;;;;;31.05;17.73;;;9.60;99.90;;;;;;6130771;23;20107;-78
2022/03/17 02:05:26;;;;;;;29.88;17.67;;;9.60;99.90;;;;;;6155457;23;20021;-78
2022/03/17 02:07:52;;;;;;;27.63;15.77;;;9.70;99.90;;;;;;6159164;23;20453;-78
2022/03/17 02:10:20;;;;;;;31.00;17.95;;;9.70;99.90;;;;;;6209885;23;20100;-79
2022/03/17 02:15:33;;;;;;;30.50;18.35;;;9.70;99.90;;;;;;6185143;23;20371;-77
2022/03/17 02:18:06;;;;;;;32.17;18.50;;;9.70;99.90;;;;;;6160818;23;20023;-77
2022/03/17 02:20:32;;;;;;;;;;;9.70;99.90;;;;;;6185310;23;20021;-78
2022/03/17 02:26:00;;;;;;;30.85;18.38;;;9.70;99.90;;;;;;6184600;23;20016;-77
2022/03/17 02:28:28;;;;;;;28.40;16.25;;;9.60;99.90;;;;;;6185435;23;20032;-77
2022/03/17 02:30:55;;;;;;;27.02;15.82;;;9.70;99.90;;;;;;6184174;23;20507;-77
2022/03/17 02:33:22;;;;;;;27.52;17.25;;;9.70;99.90;;;;;;6184924;23;20017;-77
2022/03/17 02:35:49;;;;;;;34.35;18.35;;;9.70;99.90;;;;;;6184664;23;20460;-77
2022/03/17 02:38:16;;;;;;;29.98;17.98;;;9.80;99.90;;;;;;6184741;23;20021;-77
2022/03/17 02:40:44;;;;;;;25.75;15.40;;;9.80;99.90;;;;;;6184399;23;20076;-77
2022/03/17 02:43:11;;;;;;;32.78;19.60;;;9.80;99.90;;;;;;6184552;23;20124;-77
2022/03/17 02:45:37;;;;;;;28.10;17.90;;;9.70;99.90;;;;;;6209454;23;20016;-77
2022/03/17 02:48:04;;;;;;;30.05;17.38;;;9.70;99.90;;;;;;6156322;23;20021;-77
2022/03/17 02:50:30;;;;;;;28.63;16.80;;;9.70;99.90;;;;;;6184193;23;20044;-77
2022/03/17 02:52:57;;;;;;;31.33;19.55;;;9.70;99.90;;;;;;6184139;23;20019;-77
2022/03/17 02:55:23;;;;;;;30.35;17.67;;;9.70;99.90;;;;;;6184662;23;20372;-77
2022/03/17 02:57:49;;;;;;;28.85;15.40;;;9.70;99.90;;;;;;6160365;23;20096;-77
2022/03/17 03:00:16;;;;;;;29.17;17.60;;;9.70;99.90;;;;;;6160321;23;20043;-77
2022/03/17 03:02:42;;;;;;;27.58;18.55;;;9.70;99.90;;;;;;6159307;23;20027;-77
2022/03/17 03:05:09;;;;;;;30.80;18.23;;;9.70;99.90;;;;;;6159705;23;20364;-77
2022/03/17 03:07:36;;;;;;;34.92;18.95;;;9.70;99.90;;;;;;6184187;23;20020;-77
2022/03/17 03:10:03;;;;;;;30.88;18.42;;;9.60;99.90;;;;;;6210175;23;20016;-77
2022/03/17 03:12:28;;;;;;;27.38;18.20;;;9.60;99.90;;;;;;6184550;23;20486;-77
2022/03/17 03:14:54;;;;;;;33.22;17.65;;;9.60;99.90;;;;;;6159119;23;20083;-77
2022/03/17 03:17:21;;;;;;;29.48;18.17;;;9.50;99.90;;;;;;6184590;23;20013;-77
2022/03/17 03:19:51;;;;;;;31.77;18.10;;;9.50;99.90;;;;;;6185127;23;20059;-77
2022/03/17 03:22:17;;;;;;;32.10;19.45;;;9.50;99.90;;;;;;6184758;23;20391;-77
2022/03/17 03:24:43;;;;;;;30.70;18.15;;;9.50;99.90;;;;;;6160128;23;20059;-78
2022/03/17 03:27:09;;;;;;;32.60;19.33;;;9.50;99.90;;;;;;6184466;23;20021;-78
2022/03/17 03:29:35;;;;;;;31.42;18.88;;;9.50;99.90;;;;;;6184697;23;20023;-78
2022/03/17 03:32:06;;;;;;;28.25;17.55;;;9.40;99.90;;;;;;6159170;23;20020;-78
2022/03/17 03:34:33;;;;;;;29.98;18.73;;;9.40;99.90;;;;;;6209818;23;20071;-79
2022/03/17 03:39:43;;;;;;;30.13;18.15;;;9.40;99.90;;;;;;6184741;23;20017;-78
2022/03/17 03:42:10;;;;;;;33.03;18.15;;;9.40;99.90;;;;;;6209062;23;20017;-78
2022/03/17 03:44:37;;;;;;;30.83;18.73;;;9.40;99.90;;;;;;6159989;23;20020;-79
2022/03/17 03:47:05;;;;;;;32.13;19.23;;;9.40;99.90;;;;;;6184228;23;20020;-78
2022/03/17 03:49:31;;;;;;;31.35;18.52;;;9.40;99.90;;;;;;6184355;23;20024;-78
2022/03/17 03:51:57;;;;;;;30.92;19.15;;;9.40;99.90;;;;;;6184748;23;20551;-79
2022/03/17 03:54:23;;;;;;;29.63;18.52;;;9.40;99.90;;;;;;6184556;23;20023;-78
2022/03/17 03:56:52;;;;;;;31.92;19.13;;;9.50;99.90;;;;;;6183961;23;20380;-78
2022/03/17 03:59:21;;;;;;;33.55;19.80;;;9.50;99.90;;;;;;6184065;23;20477;-78
2022/03/17 04:01:48;;;;;;;32.25;19.15;;;9.50;99.90;;;;;;6184034;23;20048;-78
2022/03/17 04:04:23;;;;;;;29.13;17.92;;;9.50;99.90;;;;;;6184129;23;20016;-78
2022/03/17 04:06:58;;;;;;;29.33;18.33;;;9.50;99.90;;;;;;6209347;23;20024;-78
2022/03/17 04:09:38;;;;;;;31.88;20.38;;;9.50;99.90;;;;;;6209888;23;20067;-78
2022/03/17 04:12:05;;;;;;;30.88;18.92;;;9.60;99.90;;;;;;6186378;23;20020;-78
2022/03/17 04:14:32;;;;;;;34.20;20.70;;;9.60;99.90;;;;;;6161651;23;20017;-78
2022/03/17 04:16:58;;;;;;;30.50;19.65;;;9.60;99.90;;;;;;6186258;23;20013;-78
2022/03/17 04:19:25;;;;;;;33.80;20.58;;;9.60;99.90;;;;;;6185899;23;20016;-78
2022/03/17 04:21:50;;;;;;;34.08;19.80;;;9.60;99.90;;;;;;6186329;23;20017;-78
2022/03/17 04:24:17;;;;;;;33.33;20.30;;;9.60;99.90;;;;;;6186046;23;20106;-78
2022/03/17 04:26:44;;;;;;;33.83;20.27;;;9.60;99.90;;;;;;6211303;23;20024;-78
2022/03/17 04:29:11;;;;;;;36.70;21.55;;;9.60;99.90;;;;;;6211352;23;20028;-78
2022/03/17 04:31:37;;;;;;;36.60;21.08;;;9.60;99.90;;;;;;6185770;23;20017;-79
2022/03/17 04:34:03;;;;;;;31.65;19.42;;;9.60;99.90;;;;;;6211228;23;20078;-79
2022/03/17 04:36:30;;;;;;;33.28;20.52;;;9.60;99.90;;;;;;6185893;23;20677;-79
2022/03/17 04:38:57;;;;;;;32.90;20.60;;;9.60;99.90;;;;;;6161728;23;20013;-78
2022/03/17 04:41:22;;;;;;;30.08;19.10;;;9.60;99.90;;;;;;6211073;23;20021;-78
2022/03/17 04:43:48;;;;;;;31.92;20.33;;;9.60;99.90;;;;;;6185433;23;20039;-78
2022/03/17 04:46:14;;;;;;;34.13;20.20;;;9.60;99.90;;;;;;6186041;23;20024;-79
2022/03/17 04:48:40;;;;;;;34.80;20.48;;;9.70;99.90;;;;;;6185767;23;20074;-79
2022/03/17 04:51:06;;;;;;;33.05;20.70;;;9.60;99.90;;;;;;6161202;23;20020;-78
2022/03/17 04:53:32;;;;;;;35.70;20.67;;;9.60;99.90;;;;;;6161546;23;20330;-78
2022/03/17 04:56:08;;;;;;;33.45;20.35;;;9.70;99.90;;;;;;6185804;23;20472;-78
2022/03/17 04:58:36;;;;;;;33.63;21.00;;;9.60;99.90;;;;;;6210960;23;20016;-78
2022/03/17 05:01:02;;;;;;;39.10;23.02;;;9.70;99.90;;;;;;6160422;23;20032;-78
2022/03/17 05:03:28;;;;;;;43.72;23.58;;;9.70;99.90;;;;;;6185583;23;20043;-78
2022/03/17 05:05:55;;;;;;;41.10;25.42;;;9.50;99.90;;;;;;6185838;23;20459;-78
2022/03/17 05:08:21;;;;;;;42.20;25.15;;;9.70;99.90;;;;;;6185702;23;20522;-77
2022/03/17 05:10:47;;;;;;;44.33;26.05;;;9.60;99.90;;;;;;6185691;23;20021;-78
2022/03/17 05:13:14;;;;;;;49.63;27.13;;;9.60;99.90;;;;;;6185938;23;20070;-77
2022/03/17 05:15:42;;;;;;;49.05;28.63;;;9.50;99.90;;;;;;6185626;23;20095;-77
2022/03/17 05:18:08;;;;;;;52.08;29.45;;;9.50;99.90;;;;;;6185714;23;20048;-77
2022/03/17 05:20:36;;;;;;;50.03;29.77;;;9.40;99.90;;;;;;6185977;23;20008;-76
2022/03/17 05:23:08;;;;;;;57.80;33.40;;;9.40;99.90;;;;;;6210520;23;20024;-76
2022/03/17 05:25:34;;;;;;;60.78;32.22;;;9.40;99.90;;;;;;6185665;23;20376;-75
2022/03/17 05:27:59;;;;;;;57.53;33.13;;;9.30;99.90;;;;;;6160933;23;20013;-75
2022/03/17 05:30:26;;;;;;;62.83;35.13;;;9.30;99.90;;;;;;6160947;23;20017;-76
2022/03/17 05:32:52;;;;;;;59.80;34.47;;;9.30;99.90;;;;;;6185414;23;20737;-76
2022/03/17 05:35:18;;;;;;;55.53;31.08;;;9.20;99.90;;;;;;6185483;23;20483;-76
2022/03/17 05:37:44;;;;;;;63.00;33.88;;;9.20;99.90;;;;;;6185884;23;20016;-76
2022/03/17 05:40:17;;;;;;;69.93;35.33;;;9.20;99.90;;;;;;6185688;23;20051;-76
2022/03/17 05:42:45;;;;;;;67.43;36.97;;;9.20;99.90;;;;;;6185780;23;20020;-76
2022/03/17 05:45:12;;;;;;;62.42;33.03;;;9.20;99.90;;;;;;6185156;23;20027;-76
2022/03/17 05:47:42;;;;;;;53.30;29.08;;;9.20;99.90;;;;;;6185655;23;20027;-78
2022/03/17 05:50:11;;;;;;;26.05;15.07;;;9.20;99.90;;;;;;6185552;23;20460;-78
2022/03/17 05:52:38;;;;;;;25.33;12.38;;;9.00;99.90;;;;;;6185311;23;20104;-78
2022/03/17 05:55:06;;;;;;;14.35;10.00;;;8.90;99.90;;;;;;6185145;23;20016;-78
2022/03/17 05:57:34;;;;;;;11.93;8.30;;;8.70;99.90;;;;;;6185071;23;20574;-78
2022/03/17 05:59:59;;;;;;;11.05;8.00;;;8.60;99.90;;;;;;6185610;23;20012;-78
2022/03/17 06:02:25;;;;;;;12.15;8.95;;;8.40;99.90;;;;;;6185055;23;20067;-79
2022/03/17 06:04:51;;;;;;;10.25;8.15;;;8.30;99.90;;;;;;6185203;23;20031;-79
2022/03/17 06:07:17;;;;;;;11.02;8.45;;;8.20;99.90;;;;;;6185470;23;20016;-78
2022/03/17 06:09:42;;;;;;;13.18;9.13;;;8.00;99.90;;;;;;6185371;23;20028;-78
2022/03/17 06:12:09;;;;;;;15.00;9.38;;;8.00;99.90;;;;;;6210495;23;20107;-78
2022/03/17 06:14:35;;;;;;;13.90;9.27;;;7.90;99.90;;;;;;6184846;23;20016;-78
2022/03/17 06:17:01;;;;;;;17.02;9.80;;;7.80;99.90;;;;;;6185638;23;20445;-78
2022/03/17 06:19:27;;;;;;;11.30;7.65;;;7.80;99.90;;;;;;6185371;23;20048;-77
2022/03/17 06:21:52;;;;;;;14.40;9.38;;;7.80;99.90;;;;;;6209857;23;20515;-78
2022/03/17 06:24:18;;;;;;;14.73;9.93;;;7.80;99.90;;;;;;6185175;23;20348;-78
2022/03/17 06:26:44;;;;;;;12.43;8.45;;;7.70;99.90;;;;;;6184880;23;20103;-78
2022/03/17 06:29:09;;;;;;;15.43;8.82;;;7.70;99.90;;;;;;6210004;23;20027;-78
2022/03/17 06:31:39;;;;;;;17.15;9.95;;;7.60;99.90;;;;;;6158841;23;20024;-78
2022/03/17 06:34:06;;;;;;;20.60;10.30;;;7.60;99.90;;;;;;6161200;23;20019;-78
2022/03/17 06:36:32;;;;;;;21.05;11.82;;;7.60;99.90;;;;;;6209551;23;20043;-78
2022/03/17 06:38:58;;;;;;;16.50;9.80;;;7.60;99.90;;;;;;6184986;23;20020;-78
2022/03/17 06:41:24;;;;;;;16.80;9.88;;;7.60;99.90;;;;;;6159877;23;20415;-78
2022/03/17 06:43:49;;;;;;;17.83;10.15;;;7.50;99.90;;;;;;6209787;23;20076;-78
2022/03/17 06:46:15;;;;;;;16.45;10.35;;;7.50;99.90;;;;;;6184338;23;20028;-77
2022/03/17 06:48:41;;;;;;;16.33;10.75;;;7.50;99.90;;;;;;6160662;23;20028;-77
2022/03/17 06:51:06;;;;;;;16.65;10.05;;;7.50;99.90;;;;;;6184694;23;20433;-77
2022/03/17 06:53:32;;;;;;;15.02;10.50;;;7.50;99.90;;;;;;6184453;23;20024;-77
2022/03/17 06:55:59;;;;;;;16.58;9.90;;;7.50;99.90;;;;;;6184991;23;20070;-77
2022/03/17 06:58:25;;;;;;;15.00;9.13;;;7.40;99.90;;;;;;6210223;23;20388;-76
2022/03/17 07:00:51;;;;;;;18.00;9.60;;;7.40;99.90;;;;;;6209020;23;20029;-77
2022/03/17 07:03:16;;;;;;;19.83;9.90;;;7.40;99.90;;;;;;6184824;23;20027;-77
2022/03/17 07:05:42;;;;;;;19.23;8.65;;;7.40;99.90;;;;;;6159914;23;20017;-77
2022/03/17 07:08:08;;;;;;;14.07;8.93;;;7.40;99.90;;;;;;6184950;23;20052;-78
2022/03/17 07:10:33;;;;;;;16.75;9.15;;;7.40;99.90;;;;;;6209318;23;20055;-77
2022/03/17 07:12:59;;;;;;;17.80;8.68;;;7.40;99.90;;;;;;6211314;23;20017;-78
2022/03/17 07:15:25;;;;;;;19.13;9.52;;;7.40;99.90;;;;;;6212245;23;20017;-77
2022/03/17 07:17:51;;;;;;;15.02;8.70;;;7.40;99.90;;;;;;6187315;23;20020;-77
2022/03/17 07:20:21;;;;;;;15.10;8.25;;;7.40;99.90;;;;;;6185367;23;20051;-77
2022/03/17 07:22:49;;;;;;;15.65;8.15;;;7.40;99.90;;;;;;6160334;23;20415;-77
2022/03/17 07:25:17;;;;;;;21.75;8.43;;;7.30;99.90;;;;;;6185194;23;20252;-77
2022/03/17 07:27:45;;;;;;;15.52;6.30;;;7.30;99.90;;;;;;6184474;23;20091;-77
2022/03/17 07:30:17;;;;;;;13.90;6.70;;;7.30;99.90;;;;;;6184554;23;20431;-78
2022/03/17 07:32:44;;;;;;;21.50;7.40;;;7.30;99.90;;;;;;6183991;23;20017;-77
2022/03/17 07:35:10;;;;;;;9.82;5.07;;;7.20;99.90;;;;;;6184655;23;20035;-78
2022/03/17 07:37:35;;;;;;;12.57;5.05;;;7.30;99.90;;;;;;6159433;23;20484;-77
2022/03/17 07:40:01;;;;;;;14.27;5.03;;;7.30;99.90;;;;;;6184545;23;20016;-77
2022/03/17 07:42:27;;;;;;;11.75;4.55;;;7.30;99.90;;;;;;6159686;23;20020;-76
2022/03/17 07:44:53;;;;;;;8.73;4.25;;;7.30;99.90;;;;;;6185109;23;20016;-77
2022/03/17 07:47:18;;;;;;;10.95;3.70;;;7.30;99.90;;;;;;6184364;23;20392;-77
2022/03/17 07:49:44;;;;;;;10.85;4.07;;;7.40;99.90;;;;;;6185615;23;20052;-77
2022/03/17 07:52:10;;;;;;;13.93;4.78;;;7.40;99.90;;;;;;6159900;23;20450;-76
2022/03/17 07:54:36;;;;;;;13.45;4.05;;;7.40;99.90;;;;;;6186633;23;20130;-77
2022/03/17 07:57:03;;;;;;;15.60;4.13;;;7.40;99.90;;;;;;6183798;23;20098;-77
2022/03/17 07:59:29;;;;;;;6.57;3.88;;;7.40;99.90;;;;;;6180755;23;20021;-77
2022/03/17 08:01:55;;;;;;;15.75;3.15;;;7.40;99.90;;;;;;6182819;23;20095;-76
2022/03/17 08:04:20;;;;;;;9.85;2.83;;;7.40;99.90;;;;;;6184811;23;20055;-76
2022/03/17 08:06:46;;;;;;;10.93;3.75;;;7.40;99.90;;;;;;6156464;23;20482;-76
2022/03/17 08:09:12;;;;;;;9.32;3.08;;;7.30;99.90;;;;;;6163208;23;20036;-77
2022/03/17 08:11:38;;;;;;;8.75;3.13;;;7.40;99.90;;;;;;6155364;23;20330;-76
2022/03/17 08:14:04;;;;;;;14.85;2.88;;;7.40;99.90;;;;;;6155203;23;20483;-77
2022/03/17 08:16:29;;;;;;;7.38;2.85;;;7.30;99.90;;;;;;6155618;23;20017;-77
2022/03/17 08:18:55;;;;;;;7.20;2.75;;;7.30;99.90;;;;;;6154999;23;20445;-77
2022/03/17 08:21:21;;;;;;;12.60;2.90;;;7.30;99.90;;;;;;6130429;23;20027;-77
2022/03/17 08:23:47;;;;;;;13.95;4.20;;;7.30;99.90;;;;;;6154746;23;20025;-77
2022/03/17 08:26:14;;;;;;;6.70;3.22;;;7.40;99.90;;;;;;6154694;23;20024;-77
2022/03/17 08:28:40;;;;;;;8.40;3.10;;;7.30;99.90;;;;;;6130428;23;20057;-77
2022/03/17 08:31:06;;;;;;;6.05;2.22;;;7.30;99.90;;;;;;6129965;23;20488;-77
2022/03/17 08:33:31;;;;;;;7.25;2.00;;;7.30;99.90;;;;;;6130497;23;20021;-77
2022/03/17 08:35:57;;;;;;;6.43;2.10;;;7.30;99.90;;;;;;6155343;23;20021;-77
2022/03/17 08:38:23;;;;;;;5.25;2.20;;;7.30;99.90;;;;;;6130585;23;20021;-77
2022/03/17 08:40:49;;;;;;;6.28;1.90;;;7.30;99.90;;;;;;6155281;23;20052;-77
2022/03/17 08:43:14;;;;;;;7.97;2.80;;;7.30;99.90;;;;;;6154853;23;20021;-77
2022/03/17 08:51:12;;;;;;;9.75;2.17;;;7.30;99.90;;;;;;6154837;23;20472;-77
2022/03/17 08:53:38;;;;;;;11.48;2.42;;;7.30;99.90;;;;;;6154658;23;20260;-77
2022/03/17 08:56:04;;;;;;;10.23;2.20;;;7.30;99.90;;;;;;6131852;23;20013;-77
2022/03/17 08:58:30;;;;;;;12.82;2.80;;;7.30;99.90;;;;;;6156303;23;20024;-78
2022/03/17 09:01:00;;;;;;;6.45;2.40;;;7.30;99.90;;;;;;6131901;23;20040;-77
2022/03/17 09:03:26;;;;;;;10.73;2.42;;;7.40;99.90;;;;;;6156673;23;20024;-77
2022/03/17 09:05:52;;;;;;;9.02;2.92;;;7.40;99.90;;;;;;6132113;23;20117;-76
2022/03/17 09:08:18;;;;;;;11.52;2.20;;;7.40;99.90;;;;;;6135694;23;20126;-77
2022/03/17 09:10:46;;;;;;;15.02;2.45;;;7.40;99.90;;;;;;6156567;23;20574;-77
2022/03/17 09:13:13;;;;;;;10.50;2.35;;;7.40;99.90;;;;;;6156173;23;20071;-77
2022/03/17 09:15:40;;;;;;;14.02;2.17;;;7.40;99.90;;;;;;6156640;23;20318;-77
2022/03/17 09:18:08;;;;;;;10.35;2.47;;;7.40;99.90;;;;;;6131987;23;20017;-77
2022/03/17 09:20:35;;;;;;;15.63;3.05;;;7.50;99.90;;;;;;6156541;23;20017;-77
2022/03/17 09:23:02;;;;;;;10.90;2.47;;;7.40;99.90;;;;;;6156394;23;20021;-77
2022/03/17 09:25:29;;;;;;;16.65;2.60;;;7.40;99.90;;;;;;6142797;23;20052;-76
2022/03/17 09:27:56;;;;;;;10.48;2.38;;;7.40;99.90;;;;;;6124721;23;20019;-76
2022/03/17 09:30:22;;;;;;;11.07;2.17;;;7.40;99.90;;;;;;6149348;23;20024;-77
2022/03/17 09:32:48;;;;;;;10.25;2.53;;;7.40;99.90;;;;;;6148743;23;20028;-76
2022/03/17 09:35:14;;;;;;;22.08;3.35;;;7.30;99.90;;;;;;6125016;23;20013;-77
2022/03/17 09:37:41;;;;;;;8.95;2.60;;;7.30;99.90;;;;;;6149282;23;20421;-75
2022/03/17 09:40:10;;;;;;;14.57;3.03;;;7.30;99.90;;;;;;6123949;23;20290;-76
2022/03/17 09:42:37;;;;;;;9.45;2.70;;;7.30;99.90;;;;;;6149933;23;20021;-77
2022/03/17 09:45:03;;;;;;;13.20;3.17;;;7.40;99.90;;;;;;6148976;23;20025;-77
2022/03/17 09:47:34;;;;;;;12.88;2.28;;;7.50;99.90;;;;;;6149222;23;20024;-76
2022/03/17 09:50:00;;;;;;;11.23;2.97;;;7.60;99.90;;;;;;6124801;23;20083;-76
2022/03/17 09:52:28;;;;;;;14.95;2.53;;;7.60;99.90;;;;;;6149382;23;20025;-76
2022/03/17 09:54:53;;;;;;;13.35;2.63;;;7.60;99.90;;;;;;6148489;23;20024;-76
2022/03/17 09:57:20;;;;;;;9.45;2.40;;;7.60;99.90;;;;;;6149256;23;20013;-76
2022/03/17 09:59:53;;;;;;;8.00;2.58;;;7.60;99.90;;;;;;6149746;23;20016;-77
2022/03/17 10:02:19;;;;;;;10.43;2.67;;;7.70;99.90;;;;;;6124679;23;20017;-77
2022/03/17 10:04:47;;;;;;;14.50;3.25;;;7.70;99.90;;;;;;6149679;23;20508;-76
2022/03/17 10:07:18;;;;;;;13.18;2.63;;;7.70;99.90;;;;;;6124201;23;20021;-77
2022/03/17 10:09:45;;;;;;;13.25;3.13;;;7.70;99.90;;;;;;6125071;23;20463;-77
2022/03/17 10:12:12;;;;;;;11.52;2.60;;;7.80;99.90;;;;;;6149151;23;20039;-78
2022/03/17 10:14:44;;;;;;;14.40;3.05;;;7.80;99.90;;;;;;6124897;23;20374;-77
2022/03/17 10:17:35;;;;;;;11.13;2.90;;;8.00;99.90;;;;;;6148896;23;20017;-77
2022/03/17 10:20:13;;;;;;;13.52;2.67;;;8.10;99.90;;;;;;6149432;23;20027;-77
2022/03/17 10:22:58;;;;;;;11.88;2.90;;;8.20;99.90;;;;;;6148694;23;20124;-77
2022/03/17 10:25:32;;;;;;;11.73;2.28;;;8.30;99.90;;;;;;6148940;23;20067;-76
2022/03/17 10:27:58;;;;;;;13.15;2.42;;;8.30;99.90;;;;;;6148016;23;20067;-77
2022/03/17 10:30:34;;;;;;;20.23;4.00;;;8.30;99.90;;;;;;6148174;23;20021;-77
2022/03/17 10:33:11;;;;;;;10.40;2.42;;;8.30;99.90;;;;;;6148013;23;20021;-77
2022/03/17 10:35:38;;;;;;;12.50;2.78;;;8.40;99.90;;;;;;6147952;23;20021;-77
2022/03/17 10:38:16;;;;;;;7.32;2.45;;;8.40;99.90;;;;;;6123966;23;20104;-77
2022/03/17 10:40:43;;;;;;;12.55;2.50;;;8.50;99.90;;;;;;6148573;23;20021;-77
2022/03/17 10:43:23;;;;;;;10.13;3.20;;;8.60;99.90;;;;;;6147932;23;20017;-77
2022/03/17 10:46:04;;;;;;;12.55;3.22;;;8.60;99.90;;;;;;6147745;23;20059;-77
2022/03/17 10:48:30;;;;;;;15.65;2.47;;;8.70;99.90;;;;;;6147834;23;20051;-77
2022/03/17 10:50:56;;;;;;;11.07;2.30;;;9.00;99.90;;;;;;6123953;23;20024;-77
2022/03/17 10:53:30;;;;;;;19.58;3.15;;;9.50;99.90;;;;;;6172535;23;20160;-77
2022/03/17 10:56:12;;;;;;;10.07;2.75;;;9.40;99.90;;;;;;6147264;23;20017;-77
2022/03/17 10:58:46;;;;;;;15.07;2.35;;;9.40;99.90;;;;;;6148077;23;20080;-77
2022/03/17 11:01:11;;;;;;;10.63;2.50;;;9.90;99.90;;;;;;6098965;23;20032;-77
2022/03/17 11:03:38;;;;;;;11.38;2.95;;;10.40;99.90;;;;;;6148781;23;20356;-77
2022/03/17 11:06:06;;;;;;;9.88;3.28;;;10.90;99.90;;;;;;6148350;23;20761;-77
2022/03/17 11:08:32;;;;;;;18.30;3.22;;;11.30;99.90;;;;;;6148138;23;20064;-77
2022/03/17 11:10:58;;;;;;;11.68;2.55;;;11.00;99.90;;;;;;6124539;23;20763;-77
2022/03/17 11:13:24;;;;;;;10.55;2.20;;;10.90;99.90;;;;;;6148680;23;20028;-77
2022/03/17 11:16:08;;;;;;;6.72;2.08;;;10.60;99.90;;;;;;6149515;23;20020;-77
2022/03/17 11:18:39;;;;;;;6.65;2.25;;;10.50;99.90;;;;;;6149241;23;20025;-77
2022/03/17 11:21:22;;;;;;;11.00;2.88;;;10.60;99.90;;;;;;6121481;23;20418;-77
2022/03/17 11:23:58;;;;;;;8.27;2.55;;;11.10;99.90;;;;;;6147642;23;20108;-77
2022/03/17 11:26:41;;;;;;;7.50;2.65;;;11.20;99.90;;;;;;6146629;23;20021;-77
2022/03/17 11:29:09;;;;;;;8.95;2.25;;;11.40;99.90;;;;;;6148015;23;20052;-77
2022/03/17 11:31:52;;;;;;;8.82;1.92;;;11.60;99.90;;;;;;6148015;23;20430;-77
2022/03/17 11:34:37;;;;;;;9.18;2.20;;;11.80;99.90;;;;;;6148434;23;20090;-77
2022/03/17 11:37:19;;;;;;;7.72;2.17;;;11.80;99.90;;;;;;6148322;23;20087;-77
2022/03/17 11:40:06;;;;;;;11.37;1.93;;;11.70;99.00;;;;;;6149026;23;20353;-78
2022/03/17 11:42:41;;;;;;;8.18;2.30;;;11.80;99.90;;;;;;6148692;23;20024;-77
2022/03/17 11:45:12;;;;;;;7.57;2.15;;;11.90;99.90;;;;;;6142515;23;20354;-78
2022/03/17 11:47:47;;;;;;;8.63;2.03;;;11.60;99.90;;;;;;6147834;23;20543;-77
2022/03/17 11:50:38;;;;;;;9.50;2.22;;;11.60;99.10;;;;;;6147565;23;20035;-78
2022/03/17 11:53:14;;;;;;;12.60;2.80;;;11.40;98.50;;;;;;6142254;23;20021;-77
2022/03/17 11:55:43;;;;;;;7.70;2.30;;;11.60;99.80;;;;;;6140795;23;20053;-78
2022/03/17 11:58:29;;;;;;;11.32;2.42;;;11.70;99.60;;;;;;6142615;23;20445;-78
2022/03/17 12:01:11;;;;;;;11.00;2.22;;;11.90;99.50;;;;;;6117246;23;20460;-78
2022/03/17 12:03:45;;;;;;;9.93;2.30;;;12.20;99.30;;;;;;6138140;23;20025;-78
2022/03/17 12:06:20;;;;;;;6.13;2.58;;;12.10;97.60;;;;;;6140690;23;20103;-78
2022/03/17 12:09:11;;;;;;;6.68;2.35;;;12.10;97.30;;;;;;6140398;23;20037;-78
2022/03/17 12:11:42;;;;;;;6.57;2.08;;;12.20;96.90;;;;;;6140668;23;20060;-78
2022/03/17 12:14:13;;;;;;;7.57;2.30;;;12.30;97.60;;;;;;6141883;23;20028;-78
2022/03/17 12:17:05;;;;;;;4.20;1.77;;;12.40;95.80;;;;;;6141210;23;20370;-77
2022/03/17 12:19:39;;;;;;;8.05;2.10;;;12.60;96.10;;;;;;6141871;23;20099;-78
2022/03/17 12:22:15;;;;;;;6.38;2.53;;;12.80;96.40;;;;;;6124749;23;20017;-78
2022/03/17 12:24:51;;;;;;;8.23;2.55;;;12.70;95.00;;;;;;6105481;23;20033;-78
2022/03/17 12:27:18;;;;;;;7.97;1.85;;;12.80;95.00;;;;;;6155685;23;20028;-78
2022/03/17 12:29:47;;;;;;;11.57;2.75;;;12.90;96.00;;;;;;6155307;23;20356;-78
2022/03/17 12:32:18;;;;;;;12.50;2.88;;;13.00;95.60;;;;;;6156632;23;20017;-78
2022/03/17 12:34:52;;;;;;;11.38;3.17;;;13.20;96.00;;;;;;6157124;23;20024;-78
2022/03/17 12:37:21;;;;;;;8.52;2.10;;;13.30;95.10;;;;;;6157066;23;20024;-78
2022/03/17 12:39:54;;;;;;;7.95;1.92;;;13.20;94.00;;;;;;6132069;23;20017;-78
2022/03/17 12:42:24;;;;;;;10.68;2.53;;;13.20;92.30;;;;;;6156168;23;20048;-79
2022/03/17 12:44:52;;;;;;;7.57;2.28;;;13.20;93.80;;;;;;6155765;23;20025;-79
2022/03/17 12:47:20;;;;;;;8.50;2.63;;;13.20;93.40;;;;;;6156098;23;20461;-79
2022/03/17 12:49:47;;;;;;;6.28;2.03;;;12.70;92.80;;;;;;6156625;23;20027;-78
2022/03/17 12:52:21;;;;;;;7.53;1.83;;;12.80;93.80;;;;;;6131569;23;20025;-78
2022/03/17 12:54:52;;;;;;;9.75;2.63;;;13.00;94.30;;;;;;6131362;23;20072;-79
2022/03/17 12:57:18;;;;;;;9.60;2.35;;;13.20;93.50;;;;;;6155457;23;20048;-79
2022/03/17 12:59:44;;;;;;;5.82;2.10;;;13.30;94.00;;;;;;6155838;23;20337;-79
2022/03/17 13:02:16;;;;;;;7.72;1.80;;;13.20;92.80;;;;;;6155382;23;20017;-80
2022/03/17 13:04:43;;;;;;;8.35;2.63;;;13.10;92.20;;;;;;6156122;23;20025;-80